Time;durP1;ratioP1;P1;durP2;ratioP2;P2;SDS_P1;SDS_P2;PMS_P1;PMS_P2;Temp;Humidity;BMP_temperature;BMP_pressure;BME280_temperature;BME280_humidity;BME280_pressure;Samples;Min_cycle;Max_cycle;Signal;HPM_P1;HPM_P2
2023/08/08 00:01:24;;;;;;;;;;;;;;;12.97;100.00;101499.03;5060745;28;19979;-44
2023/08/08 00:03:49;;;;;;;;;;;;;;;13.01;100.00;101500.00;5064091;28;19928;-43
2023/08/08 00:06:14;;;;;;;;;;;;;;;13.05;100.00;101494.09;5064586;28;19920;-44
2023/08/08 00:08:39;;;;;;;;;;;;;;;13.09;100.00;101498.50;5063909;27;20015;-43
2023/08/08 00:11:05;;;;;;;;;;;;;;;13.11;100.00;101494.28;5060620;27;19924;-43
2023/08/08 00:13:30;;;;;;;;;;;;;;;13.12;100.00;101494.31;5062458;28;19967;-44
2023/08/08 00:15:55;;;;;;;;;;;;;;;13.13;100.00;101503.81;5062079;28;19948;-42
2023/08/08 00:18:20;;;;;;;;;;;;;;;13.14;100.00;101499.50;5064805;28;19920;-43
2023/08/08 00:20:46;;;;;;;;;;;;;;;13.15;100.00;101498.66;5051252;28;19928;-43
2023/08/08 00:23:11;;;;;;;;;;;;;;;13.14;100.00;101499.50;5053100;28;20724;-44
2023/08/08 00:25:37;;;;;;;;;;;;;;;13.14;100.00;101491.75;5050358;28;19937;-42
2023/08/08 00:28:02;;;;;;;;;;;;;;;13.19;100.00;101499.66;5046124;28;19932;-44
2023/08/08 00:30:27;;;;;;;;;;;;;;;13.19;100.00;101495.34;5047469;28;19964;-42
2023/08/08 00:32:52;;;;;;;;;;;;;;;13.21;100.00;101485.09;5046978;28;20025;-43
2023/08/08 00:35:18;;;;;;;;;;;;;;;13.19;100.00;101490.19;5030832;28;20000;-43
2023/08/08 00:37:43;;;;;;;;;;;;;;;13.19;100.00;101495.34;5049471;28;19982;-43
2023/08/08 00:40:08;;;;;;;;;;;;;;;13.20;100.00;101491.06;5046110;28;19969;-43
2023/08/08 00:42:34;;;;;;;;;;;;;;;13.20;100.00;101489.34;5045456;28;19925;-43
2023/08/08 00:45:03;;;;;;;;;;;;;;;13.22;100.00;101486.84;5046048;28;19921;-43
2023/08/08 00:47:29;;;;;;;;;;;;;;;13.24;100.00;101488.66;5048386;28;19960;-45
2023/08/08 00:49:54;;;;;;;;;;;;;;;13.23;100.00;101486.03;5048933;28;19997;-43
2023/08/08 00:52:20;;;;;;;;;;;;;;;13.24;100.00;101488.66;5060469;28;19916;-43
2023/08/08 00:54:45;;;;;;;;;;;;;;;13.28;100.00;101481.84;5046662;28;20389;-43
2023/08/08 00:57:10;;;;;;;;;;;;;;;13.31;100.00;101484.50;5056550;28;20057;-44
2023/08/08 00:59:36;;;;;;;;;;;;;;;13.33;100.00;101483.72;5060055;28;19920;-44
2023/08/08 01:02:01;;;;;;;;;;;;;;;13.36;100.00;101482.94;5059328;28;19951;-42
2023/08/08 01:04:26;;;;;;;;;;;;;;;13.35;100.00;101476.91;5041417;28;19927;-44
2023/08/08 01:07:01;;;;;;;;;;;;;;;13.35;100.00;101478.59;5062838;28;20438;-43
2023/08/08 01:09:48;;;;;;;;;;;;;;;13.38;100.00;101482.13;5044777;28;19932;-44
2023/08/08 01:12:14;;;;;;;;;;;;;;;13.38;100.00;101476.97;5058039;28;19920;-44
2023/08/08 01:14:42;;;;;;;;;;;;;;;13.41;100.00;101489.09;5062233;28;19924;-43
2023/08/08 01:17:08;;;;;;;;;;;;;;;13.43;100.00;101483.97;5060666;28;20377;-44
2023/08/08 01:19:34;;;;;;;;;;;;;;;13.41;100.00;101471.88;5058825;28;19945;-44
2023/08/08 01:22:04;;;;;;;;;;;;;;;13.39;100.00;101465.78;5057814;28;20294;-42
2023/08/08 01:24:32;;;;;;;;;;;;;;;13.33;100.00;101475.97;5060886;28;19968;-43
2023/08/08 01:26:58;;;;;;;;;;;;;;;13.31;100.00;101477.63;5053702;28;20409;-44
2023/08/08 01:29:23;;;;;;;;;;;;;;;13.25;100.00;101468.84;5049124;28;19960;-44
2023/08/08 01:31:48;;;;;;;;;;;;;;;13.22;100.00;101468.75;5045988;28;20092;-44
2023/08/08 01:34:14;;;;;;;;;;;;;;;13.18;100.00;101466.91;5047882;28;20016;-45
2023/08/08 01:36:46;;;;;;;;;;;;;;;13.12;100.00;101463.31;5048805;28;19920;-44
2023/08/08 01:39:14;;;;;;;;;;;;;;;13.13;100.00;101470.22;5051612;28;20723;-45
2023/08/08 01:41:39;;;;;;;;;;;;;;;13.12;100.00;101465.03;5046921;28;19969;-44
2023/08/08 01:44:06;;;;;;;;;;;;;;;13.14;100.00;101465.94;5045721;28;19925;-43
2023/08/08 01:46:32;;;;;;;;;;;;;;;13.13;100.00;101474.53;5046272;28;19928;-44
2023/08/08 01:48:58;;;;;;;;;;;;;;;13.10;100.00;101456.34;5031680;28;20268;-45
2023/08/08 01:51:25;;;;;;;;;;;;;;;13.10;100.00;101469.25;5052366;28;19916;-46
2023/08/08 01:53:50;;;;;;;;;;;;;;;13.08;100.00;101460.59;5063184;28;19931;-43
2023/08/08 01:56:16;;;;;;;;;;;;;;;13.06;100.00;101459.72;5047229;27;19921;-44
2023/08/08 01:58:41;;;;;;;;;;;;;;;13.06;100.00;101457.13;5061979;28;19921;-45
2023/08/08 02:01:06;;;;;;;;;;;;;;;13.04;100.00;101451.94;5056958;28;20542;-44
2023/08/08 02:03:31;;;;;;;;;;;;;;;13.03;100.00;101451.88;5059331;28;20319;-43
2023/08/08 02:05:57;;;;;;;;;;;;;;;12.99;100.00;101444.88;5061578;28;19999;-51
2023/08/08 02:08:22;;;;;;;;;;;;;;;12.96;100.00;101442.22;5046480;28;19928;-49
2023/08/08 02:10:47;;;;;;;;;;;;;;;12.93;100.00;101443.00;5067133;28;19969;-47
2023/08/08 02:13:12;;;;;;;;;;;;;;;12.91;100.00;101441.19;5064767;28;20398;-48
2023/08/08 02:15:38;;;;;;;;;;;;;;;12.88;100.00;101453.19;5040167;28;19924;-48
2023/08/08 02:18:03;;;;;;;;;;;;;;;12.87;100.00;101450.59;5065023;27;19924;-49
2023/08/08 02:20:29;;;;;;;;;;;;;;;12.84;100.00;101450.47;5062788;28;19925;-48
2023/08/08 02:22:54;;;;;;;;;;;;;;;12.84;100.00;101432.41;5059259;28;19920;-50
2023/08/08 02:25:20;;;;;;;;;;;;;;;12.82;100.00;101437.53;5058372;28;19924;-50
2023/08/08 02:27:45;;;;;;;;;;;;;;;12.84;100.00;101435.00;5059176;28;19920;-48
2023/08/08 02:30:11;;;;;;;;;;;;;;;12.84;100.00;101435.00;5047920;28;19935;-47
2023/08/08 02:32:36;;;;;;;;;;;;;;;12.85;100.00;101432.44;5037602;28;20383;-48
2023/08/08 02:35:01;;;;;;;;;;;;;;;12.87;100.00;101435.97;5049623;28;19924;-47
2023/08/08 02:37:27;;;;;;;;;;;;;;;12.88;100.00;101429.09;5050475;28;19928;-49
2023/08/08 02:39:52;;;;;;;;;;;;;;;12.91;100.00;101430.88;5033566;28;19971;-47
2023/08/08 02:42:17;;;;;;;;;;;;;;;12.89;100.00;101426.53;5051881;28;19933;-48
2023/08/08 02:44:43;;;;;;;;;;;;;;;12.91;100.00;101429.16;5047268;28;20464;-47
2023/08/08 02:47:08;;;;;;;;;;;;;;;12.92;100.00;101417.13;5050980;28;19970;-48
2023/08/08 02:49:33;;;;;;;;;;;;;;;12.94;100.00;101423.22;5048813;28;19936;-47
2023/08/08 02:51:59;;;;;;;;;;;;;;;12.93;100.00;101416.31;5060840;28;19920;-48
2023/08/08 02:54:24;;;;;;;;;;;;;;;12.92;100.00;101412.84;5060080;28;19916;-48
2023/08/08 02:56:50;;;;;;;;;;;;;;;12.91;100.00;101405.06;5033830;27;19935;-47
2023/08/08 02:59:16;;;;;;;;;;;;;;;12.94;100.00;101406.03;5062427;28;19928;-50
2023/08/08 03:01:41;;;;;;;;;;;;;;;12.93;100.00;101408.56;5046682;28;19932;-47
2023/08/08 03:04:06;;;;;;;;;;;;;;;12.94;100.00;101412.91;5062236;27;20011;-48
2023/08/08 03:06:32;;;;;;;;;;;;;;;12.90;100.00;101417.09;5064422;27;20022;-48
2023/08/08 03:08:57;;;;;;;;;;;;;;;12.89;100.00;101418.81;5060918;28;19920;-47
2023/08/08 03:11:22;;;;;;;;;;;;;;;12.87;100.00;101412.75;5065395;28;20728;-48
2023/08/08 03:13:47;;;;;;;;;;;;;;;12.86;100.00;101417.84;5064469;28;19928;-48
2023/08/08 03:16:13;;;;;;;;;;;;;;;12.84;100.00;101420.38;5064428;28;19924;-47
2023/08/08 03:18:38;;;;;;;;;;;;;;;12.86;100.00;101415.25;5064119;28;19936;-50
2023/08/08 03:21:03;;;;;;;;;;;;;;;12.83;100.00;101405.72;5065751;28;19928;-47
2023/08/08 03:23:29;;;;;;;;;;;;;;;12.82;100.00;101408.28;5061025;27;20852;-47
2023/08/08 03:25:54;;;;;;;;;;;;;;;12.81;100.00;101409.13;5064173;28;19977;-47
2023/08/08 03:28:19;;;;;;;;;;;;;;;12.77;100.00;101408.16;5060615;28;19920;-47
2023/08/08 03:30:44;;;;;;;;;;;;;;;12.77;100.00;101404.69;5052648;28;19916;-48
2023/08/08 03:33:10;;;;;;;;;;;;;;;12.75;100.00;101408.94;5029688;28;19932;-49
2023/08/08 03:35:35;;;;;;;;;;;;;;;12.74;100.00;101414.91;5029292;28;20401;-44
2023/08/08 03:38:00;;;;;;;;;;;;;;;12.72;100.00;101417.47;5046145;28;20016;-43
2023/08/08 03:40:25;;;;;;;;;;;;;;;12.71;100.00;101417.44;5049311;28;20397;-43
2023/08/08 03:42:51;;;;;;;;;;;;;;;12.70;100.00;101415.69;5048493;28;20279;-43
2023/08/08 03:45:16;;;;;;;;;;;;;;;12.69;100.00;101404.50;5048801;27;19928;-45
2023/08/08 03:47:41;;;;;;;;;;;;;;;12.67;100.00;101407.84;5045105;28;20007;-44
2023/08/08 03:50:07;;;;;;;;;;;;;;;12.68;100.00;101410.50;5046193;28;20481;-43
2023/08/08 03:52:35;;;;;;;;;;;;;;;12.68;100.00;101402.75;5053297;28;20013;-44
2023/08/08 03:55:00;;;;;;;;;;;;;;;12.68;100.00;101402.75;5051433;28;19935;-43
2023/08/08 03:57:26;;;;;;;;;;;;;;;12.66;100.00;101400.94;5046797;28;20302;-42
2023/08/08 03:59:51;;;;;;;;;;;;;;;12.64;100.00;101403.47;5049092;28;19928;-44
2023/08/08 04:02:16;;;;;;;;;;;;;;;12.59;100.00;101399.88;5044123;28;19933;-46
2023/08/08 04:04:41;;;;;;;;;;;;;;;12.55;100.00;101401.50;5048681;28;20394;-44
2023/08/08 04:07:06;;;;;;;;;;;;;;;12.53;100.00;101407.47;5042668;28;19960;-45
2023/08/08 04:09:32;;;;;;;;;;;;;;;12.50;100.00;101395.34;5040714;28;19935;-44
2023/08/08 04:11:57;;;;;;;;;;;;;;;12.45;100.00;101394.34;5041389;28;19956;-44
2023/08/08 04:14:22;;;;;;;;;;;;;;;12.44;100.00;101399.47;5040432;28;19928;-47
2023/08/08 04:16:48;;;;;;;;;;;;;;;12.42;100.00;101399.41;5045197;28;21497;-44
2023/08/08 04:19:13;;;;;;;;;;;;;;;12.41;100.00;101394.22;5039990;28;19928;-48
2023/08/08 04:21:38;;;;;;;;;;;;;;;12.40;100.00;101389.88;5041795;27;19976;-43
2023/08/08 04:24:03;;;;;;;;;;;;;;;12.40;100.00;101389.88;5025955;28;20595;-44
2023/08/08 04:26:29;;;;;;;;;;;;;;;12.40;100.00;101388.19;5045700;28;19928;-46
2023/08/08 04:28:55;;;;;;;;;;;;;;;12.38;100.00;101389.84;5045885;28;19925;-44
2023/08/08 04:31:20;;;;;;;;;;;;;;;12.35;100.00;101388.03;5045699;27;19951;-45
2023/08/08 04:33:45;;;;;;;;;;;;;;;12.35;100.00;101393.19;5029851;28;20286;-45
2023/08/08 04:36:11;;;;;;;;;;;;;;;12.36;100.00;101383.75;5030411;28;19929;-45
2023/08/08 04:38:36;;;;;;;;;;;;;;;12.38;100.00;101394.09;5047363;28;19929;-47
2023/08/08 04:41:01;;;;;;;;;;;;;;;12.35;100.00;101398.34;5047401;28;20343;-44
2023/08/08 04:43:29;;;;;;;;;;;;;;;12.37;100.00;101400.09;5044155;28;19989;-44
2023/08/08 04:45:54;;;;;;;;;;;;;;;12.36;100.00;101399.22;5044995;28;19925;-46
2023/08/08 04:48:20;;;;;;;;;;;;;;;12.38;100.00;101402.75;5046931;28;19980;-44
2023/08/08 04:50:48;;;;;;;;;;;;;;;12.39;100.00;101399.31;5046936;28;20310;-43
2023/08/08 04:53:13;;;;;;;;;;;;;;;12.40;100.00;101402.78;5050918;28;20711;-46
2023/08/08 04:55:39;;;;;;;;;;;;;;;12.42;100.00;101403.69;5049543;28;19982;-45
2023/08/08 04:58:04;;;;;;;;;;;;;;;12.44;100.00;101400.34;5050974;27;20293;-48
2023/08/08 05:00:29;;;;;;;;;;;;;;;12.49;100.00;101395.28;5053970;28;19960;-44
2023/08/08 05:02:55;;;;;;;;;;;;;;;12.56;100.00;101398.13;5054346;27;19979;-45
2023/08/08 05:05:20;;;;;;;;;;;;;;;12.69;100.00;101388.13;5054660;28;19921;-46
2023/08/08 05:07:45;;;;;;;;;;;;;;;12.74;100.00;101389.09;5051845;28;19921;-47
2023/08/08 05:10:11;;;;;;;;;;;;;;;12.74;100.00;101397.75;5052472;28;19928;-45
2023/08/08 05:12:36;;;;;;;;;;;;;;;12.76;100.00;101393.50;5050987;28;20210;-44
2023/08/08 05:15:02;;;;;;;;;;;;;;;12.74;100.00;101396.84;5051545;28;19977;-44
2023/08/08 05:17:27;;;;;;;;;;;;;;;12.73;100.00;101395.09;5054188;28;19974;-45
2023/08/08 05:19:52;;;;;;;;;;;;;;;12.84;100.00;101393.69;5053002;28;20185;-44
2023/08/08 05:22:18;;;;;;;;;;;;;;;13.29;100.00;101388.91;5051836;28;19935;-44
2023/08/08 05:24:43;;;;;;;;;;;;;;;13.83;100.00;101396.25;5054901;28;20305;-45
2023/08/08 05:27:09;;;;;;;;;;;;;;;14.21;100.00;101399.69;5050327;27;20009;-44
2023/08/08 05:29:37;;;;;;;;;;;;;;;14.64;100.00;101400.63;5055597;28;19935;-44
2023/08/08 05:32:06;;;;;;;;;;;;;;;15.11;100.00;101394.59;5022194;28;20406;-44
2023/08/08 05:34:32;;;;;;;;;;;;;;;15.44;100.00;101402.94;5039708;28;19974;-45
2023/08/08 05:36:57;;;;;;;;;;;;;;;15.37;100.00;101408.88;5044496;28;19925;-44
2023/08/08 05:39:22;;;;;;;;;;;;;;;15.07;100.00;101416.09;5030824;27;20633;-44
2023/08/08 05:41:48;;;;;;;;;;;;;;;14.93;100.00;101406.38;5047926;28;20824;-44
2023/08/08 05:44:13;;;;;;;;;;;;;;;15.13;100.00;101404.13;5043216;28;22001;-44
2023/08/08 05:46:38;;;;;;;;;;;;;;;15.18;100.00;101406.81;5046186;28;19928;-44
2023/08/08 05:49:03;;;;;;;;;;;;;;;15.25;100.00;101417.31;5044741;28;19928;-45
2023/08/08 05:51:29;;;;;;;;;;;;;;;15.33;100.00;101407.06;5045088;28;20401;-46
2023/08/08 05:53:54;;;;;;;;;;;;;;;15.25;100.00;101404.34;5050730;28;20124;-46
2023/08/08 05:56:19;;;;;;;;;;;;;;;15.00;100.00;101402.19;5049869;28;19975;-46
2023/08/08 05:58:45;;;;;;;;;;;;;;;14.76;100.00;101400.00;5046540;28;19936;-43
2023/08/08 06:01:11;;;;;;;;;;;;;;;14.63;100.00;101401.47;5043501;28;19975;-44
2023/08/08 06:03:39;;;;;;;;;;;;;;;14.60;100.00;101406.56;5045554;28;19936;-45
2023/08/08 06:06:06;;;;;;;;;;;;;;;14.59;100.00;101406.53;5049223;28;19916;-51
2023/08/08 06:08:31;;;;;;;;;;;;;;;14.49;100.00;101408.06;5050479;28;19925;-47
2023/08/08 06:10:57;;;;;;;;;;;;;;;14.44;100.00;101404.50;5045744;28;19972;-44
2023/08/08 06:13:22;;;;;;;;;;;;;;;14.44;100.00;101400.19;5044924;28;19928;-43
2023/08/08 06:15:47;;;;;;;;;;;;;;;14.53;100.00;101406.41;5046249;28;19929;-44
2023/08/08 06:18:12;;;;;;;;;;;;;;;14.55;100.00;101408.19;5044499;28;19929;-46
2023/08/08 06:20:38;;;;;;;;;;;;;;;14.62;100.00;101416.94;5046810;28;20314;-44
2023/08/08 06:23:03;;;;;;;;;;;;;;;14.69;100.00;101424.03;5048026;28;19959;-46
2023/08/08 06:25:28;;;;;;;;;;;;;;;14.77;100.00;101419.84;5044747;28;19963;-45
2023/08/08 06:27:53;;;;;;;;;;;;;;;14.82;100.00;101422.53;5044287;28;19932;-45
2023/08/08 06:30:19;;;;;;;;;;;;;;;14.84;100.00;101426.03;5048814;28;20148;-48
2023/08/08 06:32:44;;;;;;;;;;;;;;;14.84;100.00;101429.47;5046081;28;19956;-44
2023/08/08 06:35:09;;;;;;;;;;;;;;;14.85;100.00;101423.47;5043678;28;20387;-46
2023/08/08 06:37:35;;;;;;;;;;;;;;;14.89;100.00;101414.03;5028887;28;20527;-46
2023/08/08 06:40:01;;;;;;;;;;;;;;;14.92;100.00;101416.69;5048177;27;19924;-44
2023/08/08 06:42:26;;;;;;;;;;;;;;;15.10;100.00;101421.34;5043596;28;19933;-43
2023/08/08 06:44:51;;;;;;;;;;;;;;;15.51;100.00;101427.25;5046189;28;23439;-46
2023/08/08 06:47:16;;;;;;;;;;;;;;;15.80;100.00;101430.34;5042583;28;19925;-47
2023/08/08 06:49:42;;;;;;;;;;;;;;;16.05;100.00;101418.63;5051286;28;19924;-44
2023/08/08 06:52:07;;;;;;;;;;;;;;;16.37;100.00;101424.25;5051961;27;20297;-46
2023/08/08 06:54:32;;;;;;;;;;;;;;;16.64;100.00;101431.53;5055761;28;20418;-43
2023/08/08 06:56:58;;;;;;;;;;;;;;;16.75;100.00;101422.19;5043346;28;19924;-45
2023/08/08 06:59:24;;;;;;;;;;;;;;;16.73;100.00;101423.88;5045561;28;19959;-46
2023/08/08 07:01:50;;;;;;;;;;;;;;;16.77;100.00;101430.84;5048891;28;19936;-43
2023/08/08 07:04:15;;;;;;;;;;;;;;;16.72;100.00;101426.47;5056983;28;19924;-48
2023/08/08 07:06:42;;;;;;;;;;;;;;;16.75;100.00;101435.16;5057585;28;19925;-47
2023/08/08 07:09:10;;;;;;;;;;;;;;;16.65;100.00;101429.81;5057227;28;19917;-44
2023/08/08 07:11:35;;;;;;;;;;;;;;;16.71;100.00;101432.50;5040191;28;19929;-45
2023/08/08 07:14:00;;;;;;;;;;;;;;;16.92;100.00;101435.34;5058426;28;19931;-47
2023/08/08 07:16:26;;;;;;;;;;;;;;;17.09;100.00;101435.53;5060204;28;20036;-45
2023/08/08 07:18:51;;;;;;;;;;;;;;;17.32;100.00;101436.63;5056045;28;20372;-45
2023/08/08 07:21:16;;;;;;;;;;;;;;;17.56;100.00;101429.91;5057435;28;19928;-43
2023/08/08 07:23:41;;;;;;;;;;;;;;;17.86;100.00;101432.78;5058153;28;20375;-44
2023/08/08 07:26:07;;;;;;;;;;;;;;;18.22;100.00;101426.94;5060267;27;19928;-44
2023/08/08 07:28:32;;;;;;;;;;;;;;;18.17;93.71;101425.16;5039478;28;20016;-43
2023/08/08 07:30:57;;;;;;;;;;;;;;;18.04;97.36;101432.03;5058003;28;20035;-44
2023/08/08 07:33:23;;;;;;;;;;;;;;;17.90;98.49;101423.28;5048912;28;20054;-44
2023/08/08 07:35:48;;;;;;;;;;;;;;;17.91;97.89;101420.69;5047232;28;19924;-46
2023/08/08 07:38:14;;;;;;;;;;;;;;;17.88;97.74;101423.25;5045108;28;20402;-45
2023/08/08 07:40:40;;;;;;;;;;;;;;;17.97;97.88;101414.66;5045827;28;21454;-44
2023/08/08 07:43:06;;;;;;;;;;;;;;;18.10;87.73;101423.41;5043633;28;20406;-44
2023/08/08 07:45:31;;;;;;;;;;;;;;;18.26;96.37;101414.81;5044551;28;19929;-46
2023/08/08 07:47:56;;;;;;;;;;;;;;;18.44;96.88;101421.81;5045663;28;19968;-44
2023/08/08 07:50:22;;;;;;;;;;;;;;;18.52;91.58;101422.75;5032648;28;20354;-44
2023/08/08 07:52:47;;;;;;;;;;;;;;;18.44;90.97;101417.53;5052906;27;19924;-43
2023/08/08 07:55:12;;;;;;;;;;;;;;;18.34;88.85;101413.13;5051763;28;19931;-45
2023/08/08 07:57:37;;;;;;;;;;;;;;;18.49;87.34;101415.78;5046359;27;19920;-43
2023/08/08 08:00:12;;;;;;;;;;;;;;;18.61;83.92;101419.31;5051686;28;20391;-43
2023/08/08 08:02:38;;;;;;;;;;;;;;;18.68;91.73;101423.69;5047921;28;19928;-44
2023/08/08 08:05:07;;;;;;;;;;;;;;;18.64;88.10;101421.94;5045539;28;20265;-44
2023/08/08 08:07:33;;;;;;;;;;;;;;;18.66;88.75;101421.06;5059036;28;19927;-46
2023/08/08 08:09:59;;;;;;;;;;;;;;;18.65;83.96;101424.53;5058982;28;19921;-45
2023/08/08 08:12:24;;;;;;;;;;;;;;;18.61;83.20;101421.91;5051786;28;19924;-44
2023/08/08 08:14:49;;;;;;;;;;;;;;;18.42;80.43;101421.81;5050401;28;19982;-45
2023/08/08 08:17:14;;;;;;;;;;;;;;;18.36;81.79;101413.13;5056239;27;19925;-44
2023/08/08 08:19:40;;;;;;;;;;;;;;;18.47;87.48;101408.84;5031737;28;20283;-45
2023/08/08 08:22:05;;;;;;;;;;;;;;;18.60;86.59;101408.00;5044843;28;20492;-45
2023/08/08 08:24:30;;;;;;;;;;;;;;;18.67;82.46;101415.03;5053964;28;19925;-46
2023/08/08 08:26:55;;;;;;;;;;;;;;;18.79;80.86;101423.75;5058593;28;19925;-44
2023/08/08 08:29:21;;;;;;;;;;;;;;;18.67;81.88;101412.41;5048739;28;19975;-43
2023/08/08 08:31:46;;;;;;;;;;;;;;;18.60;85.78;101415.84;5040792;28;20031;-43
2023/08/08 08:34:11;;;;;;;;;;;;;;;18.63;84.23;101413.25;5042634;28;20046;-44
2023/08/08 08:36:36;;;;;;;;;;;;;;;18.93;85.70;101414.25;5045397;28;19928;-45
2023/08/08 08:39:02;;;;;;;;;;;;;;;19.24;80.41;101421.25;5044913;28;19929;-44
2023/08/08 08:41:27;;;;;;;;;;;;;;;19.41;78.10;101425.59;5050277;28;20417;-44
2023/08/08 08:43:54;;;;;;;;;;;;;;;19.22;78.10;101412.53;5045374;28;20318;-43
2023/08/08 08:46:20;;;;;;;;;;;;;;;19.21;70.96;101418.63;5044034;28;19924;-43
2023/08/08 08:48:45;;;;;;;;;;;;;;;19.18;74.94;101412.56;5045727;28;19964;-44
2023/08/08 08:51:11;;;;;;;;;;;;;;;19.15;78.66;101416.00;5043862;27;20023;-44
2023/08/08 08:53:39;;;;;;;;;;;;;;;19.18;74.08;101421.25;5043044;28;19921;-44
2023/08/08 08:56:04;;;;;;;;;;;;;;;19.16;76.08;101422.97;5046788;28;19920;-43
2023/08/08 08:58:30;;;;;;;;;;;;;;;19.11;74.80;101426.41;5046382;28;19936;-44
2023/08/08 09:00:56;;;;;;;;;;;;;;;18.94;75.52;101426.41;5050667;28;19974;-41
2023/08/08 09:03:22;;;;;;;;;;;;;;;18.85;77.47;101418.56;5041787;28;20045;-45
2023/08/08 09:05:48;;;;;;;;;;;;;;;18.69;77.03;101420.25;5043200;28;20015;-44
2023/08/08 09:08:13;;;;;;;;;;;;;;;18.64;75.31;101427.16;5046623;28;20284;-46
2023/08/08 09:10:38;;;;;;;;;;;;;;;18.59;73.58;101423.66;5050293;28;19920;-45
2023/08/08 09:13:04;;;;;;;;;;;;;;;18.42;76.19;101419.22;5050341;28;20374;-43
2023/08/08 09:15:32;;;;;;;;;;;;;;;18.37;76.77;101423.53;5049628;28;20906;-44
2023/08/08 09:17:58;;;;;;;;;;;;;;;18.24;79.58;101432.16;5049251;28;20015;-44
2023/08/08 09:20:25;;;;;;;;;;;;;;;18.12;79.89;101426.88;5055793;28;19928;-43
2023/08/08 09:22:52;;;;;;;;;;;;;;;17.96;80.70;101436.34;5049734;28;19931;-43
2023/08/08 09:25:17;;;;;;;;;;;;;;;17.88;81.71;101425.84;5047694;28;20416;-43
2023/08/08 09:27:43;;;;;;;;;;;;;;;17.96;82.35;101441.53;5051020;28;19932;-45
2023/08/08 09:30:09;;;;;;;;;;;;;;;18.07;81.48;101441.59;5051480;28;19935;-43
2023/08/08 09:32:34;;;;;;;;;;;;;;;18.05;81.41;101438.97;5044527;27;19986;-45
2023/08/08 09:34:59;;;;;;;;;;;;;;;18.06;81.15;101432.91;5045807;27;20856;-44
2023/08/08 09:37:25;;;;;;;;;;;;;;;18.13;80.46;101424.28;5053559;28;20001;-46
2023/08/08 09:39:57;;;;;;;;;;;;;;;18.19;80.12;101434.72;5058670;28;19964;-43
2023/08/08 09:42:22;;;;;;;;;;;;;;;18.17;79.53;101436.44;5058713;28;19932;-45
2023/08/08 09:44:48;;;;;;;;;;;;;;;18.16;80.65;101431.25;5048609;28;19981;-43
2023/08/08 09:47:14;;;;;;;;;;;;;;;18.17;81.31;101425.16;5043955;28;19931;-45
2023/08/08 09:49:40;;;;;;;;;;;;;;;18.26;80.94;101429.53;5049594;28;19924;-45
2023/08/08 09:52:06;;;;;;;;;;;;;;;18.37;81.95;101426.13;5047077;28;19940;-44
2023/08/08 09:54:32;;;;;;;;;;;;;;;18.59;80.47;101429.72;5045730;28;19939;-44
2023/08/08 09:56:58;;;;;;;;;;;;;;;18.78;79.46;101435.91;5045158;28;21136;-42
2023/08/08 09:59:24;;;;;;;;;;;;;;;18.94;74.59;101436.84;5048246;28;20309;-45
2023/08/08 10:01:50;;;;;;;;;;;;;;;18.96;75.91;101424.66;5053289;28;19925;-45
2023/08/08 10:04:16;;;;;;;;;;;;;;;19.01;75.01;101426.41;5028814;28;20390;-43
2023/08/08 10:06:41;;;;;;;;;;;;;;;19.02;73.12;101429.91;5049957;27;19934;-43
2023/08/08 10:09:07;;;;;;;;;;;;;;;18.98;73.15;101425.53;5047450;28;20587;-43
2023/08/08 10:11:33;;;;;;;;;;;;;;;19.02;70.93;101433.38;5047130;28;19960;-44
2023/08/08 10:14:01;;;;;;;;;;;;;;;19.07;73.00;101428.16;5030502;27;20416;-46
2023/08/08 10:16:26;;;;;;;;;;;;;;;19.17;72.71;101429.03;5064054;28;20461;-43
2023/08/08 10:18:58;;;;;;;;;;;;;;;19.20;70.48;101424.72;5062985;27;19929;-43
2023/08/08 10:21:24;;;;;;;;;;;;;;;19.35;70.18;101438.63;5059030;27;19916;-44
2023/08/08 10:23:49;;;;;;;;;;;;;;;19.35;69.49;101426.47;5055821;28;20339;-44
2023/08/08 10:26:21;;;;;;;;;;;;;;;19.41;71.21;101439.50;5047152;28;21708;-43
2023/08/08 10:28:56;;;;;;;;;;;;;;;19.46;71.95;101436.91;5045114;28;20422;-46
2023/08/08 10:31:22;;;;;;;;;;;;;;;19.52;72.27;101447.34;5048232;28;20000;-42
2023/08/08 10:33:47;;;;;;;;;;;;;;;19.50;72.08;101438.66;5046774;28;20024;-45
2023/08/08 10:36:15;;;;;;;;;;;;;;;19.48;71.24;101443.88;5049141;28;19925;-45
2023/08/08 10:38:46;;;;;;;;;;;;;;;19.43;69.72;101436.91;5046499;28;20363;-45
2023/08/08 10:41:13;;;;;;;;;;;;;;;19.17;70.57;101435.16;5050753;28;20532;-43
2023/08/08 10:43:38;;;;;;;;;;;;;;;19.18;72.47;101443.84;5047387;28;19931;-43
2023/08/08 10:46:04;;;;;;;;;;;;;;;19.21;71.29;101438.63;5045182;28;19924;-44
2023/08/08 10:48:30;;;;;;;;;;;;;;;19.32;70.25;101430.81;5045274;28;19924;-43
2023/08/08 10:50:57;;;;;;;;;;;;;;;19.37;70.96;101431.69;5045527;28;20733;-43
2023/08/08 10:53:24;;;;;;;;;;;;;;;19.52;72.87;101429.09;5044948;28;19917;-45
2023/08/08 10:55:56;;;;;;;;;;;;;;;19.68;71.29;101417.81;5043495;28;19958;-44
2023/08/08 10:58:21;;;;;;;;;;;;;;;19.73;70.98;101423.03;5045422;28;19924;-44
2023/08/08 11:00:48;;;;;;;;;;;;;;;19.85;70.47;101419.56;5056133;28;19931;-43
2023/08/08 11:03:14;;;;;;;;;;;;;;;19.96;69.49;101423.88;5061360;28;19928;-44
2023/08/08 11:05:39;;;;;;;;;;;;;;;20.05;66.45;101422.97;5061394;28;19920;-44
2023/08/08 11:08:05;;;;;;;;;;;;;;;20.09;69.30;101433.44;5065014;28;19925;-46
2023/08/08 11:10:38;;;;;;;;;;;;;;;20.01;66.64;101431.69;5061691;28;19935;-44
2023/08/08 11:13:04;;;;;;;;;;;;;;;20.07;65.28;101426.44;5044787;27;20004;-45
2023/08/08 11:15:29;;;;;;;;;;;;;;;19.95;67.26;101423.88;5042518;28;19949;-44
2023/08/08 11:17:56;;;;;;;;;;;;;;;19.88;66.84;101416.91;5042805;28;20644;-44
2023/08/08 11:20:21;;;;;;;;;;;;;;;19.94;67.75;101412.56;5048788;28;20019;-45
2023/08/08 11:22:53;;;;;;;;;;;;;;;19.95;64.75;101411.69;5043274;28;21832;-44
2023/08/08 11:25:19;;;;;;;;;;;;;;;19.69;67.89;101413.47;5044906;28;19920;-43
2023/08/08 11:27:51;;;;;;;;;;;;;;;19.62;67.82;101402.16;5046739;28;19929;-43
2023/08/08 11:30:16;;;;;;;;;;;;;;;19.67;66.99;101415.22;5045830;28;19975;-44
2023/08/08 11:32:41;;;;;;;;;;;;;;;19.74;67.93;101412.59;5045996;28;20035;-48
2023/08/08 11:35:07;;;;;;;;;;;;;;;19.92;69.04;101403.00;5043350;28;19929;-50
2023/08/08 11:37:32;;;;;;;;;;;;;;;20.15;67.75;101410.78;5045212;28;19928;-49
2023/08/08 11:39:58;;;;;;;;;;;;;;;20.30;67.33;101401.16;5044693;28;19956;-50
2023/08/08 11:42:23;;;;;;;;;;;;;;;20.52;65.84;101409.81;5046027;28;20020;-49
2023/08/08 11:44:50;;;;;;;;;;;;;;;20.57;64.45;101405.44;5024711;28;19928;-47
2023/08/08 11:47:15;;;;;;;;;;;;;;;20.43;64.93;101424.63;5042200;28;20069;-50
2023/08/08 11:49:41;;;;;;;;;;;;;;;20.14;63.17;101422.94;5046303;28;20687;-49
2023/08/08 11:52:08;;;;;;;;;;;;;;;19.87;65.92;101416.06;5041882;28;19924;-48
2023/08/08 11:54:33;;;;;;;;;;;;;;;19.78;65.80;101427.38;5028883;27;19962;-51
2023/08/08 11:57:06;;;;;;;;;;;;;;;19.95;65.91;101424.72;5102831;27;20032;-47
2023/08/08 11:59:31;;;;;;;;;;;;;;;20.14;63.74;101427.31;5091686;28;20340;-48
2023/08/08 12:01:56;;;;;;;;;;;;;;;20.13;65.66;101409.91;5089592;28;19923;-49
2023/08/08 12:04:22;;;;;;;;;;;;;;;20.15;64.72;101409.03;5089403;28;19938;-51
2023/08/08 12:06:48;;;;;;;;;;;;;;;20.33;64.36;101418.56;5089302;28;20487;-50
2023/08/08 12:09:13;;;;;;;;;;;;;;;20.53;63.04;101405.47;5083530;28;19923;-51
2023/08/08 12:11:39;;;;;;;;;;;;;;;20.71;62.89;101409.72;5087435;28;19951;-47
2023/08/08 12:14:07;;;;;;;;;;;;;;;20.84;60.58;101401.81;5086301;28;19998;-51
2023/08/08 12:16:32;;;;;;;;;;;;;;;20.98;58.90;101411.31;5088507;28;20141;-50
2023/08/08 12:18:57;;;;;;;;;;;;;;;20.75;59.00;101400.97;5085679;28;20002;-50
2023/08/08 12:21:22;;;;;;;;;;;;;;;20.87;56.68;101406.16;5086353;28;22153;-51
2023/08/08 12:23:48;;;;;;;;;;;;;;;20.92;61.69;101408.72;5087393;28;19935;-47